Time;durP1;ratioP1;P1;durP2;ratioP2;P2;SDS_P1;SDS_P2;PMS_P1;PMS_P2;Temp;Humidity;BMP_temperature;BMP_pressure;BME280_temperature;BME280_humidity;BME280_pressure;Samples;Min_cycle;Max_cycle;Signal;HPM_P1;HPM_P2
2023/04/10 00:00:30;;;;;;;73.25;43.42;;;;;;;20.81;72.38;98741.78;4945544;29;20055;-64
2023/04/10 00:03:00;;;;;;;80.38;42.47;;;;;;;20.80;72.89;98740.19;4946096;29;20043;-64
2023/04/10 00:05:31;;;;;;;87.70;43.28;;;;;;;20.77;72.73;98735.28;4945979;28;20051;-64
2023/04/10 00:08:02;;;;;;;81.28;42.97;;;;;;;20.73;72.64;98743.06;4950038;28;20063;-64
2023/04/10 00:10:32;;;;;;;84.32;41.20;;;;;;;20.71;72.94;98744.41;4944741;29;20424;-64
2023/04/10 00:13:02;;;;;;;79.72;41.35;;;;;;;20.74;73.08;98749.28;4944804;29;20047;-63
2023/04/10 00:15:32;;;;;;;86.72;42.63;;;;;;;20.67;72.73;98743.31;4950300;28;20122;-64
2023/04/10 00:18:01;;;;;;;81.05;43.17;;;;;;;20.67;73.08;98744.09;4945792;28;20462;-60
2023/04/10 00:20:31;;;;;;;82.97;42.75;;;;;;;20.70;72.10;98742.78;4945345;28;20068;-65
2023/04/10 00:23:00;;;;;;;78.53;43.67;;;;;;;20.70;71.96;98740.09;4945554;28;20047;-65
2023/04/10 00:25:30;;;;;;;79.53;45.30;;;;;;;20.64;72.38;98752.69;4945546;28;20114;-64
2023/04/10 00:27:59;;;;;;;85.68;44.92;;;;;;;20.59;72.42;98747.25;4947873;28;20130;-64
2023/04/10 00:30:29;;;;;;;86.32;46.17;;;;;;;20.53;72.51;98759.06;4929708;29;20733;-64
2023/04/10 00:32:58;;;;;;;81.35;45.92;;;;;;;20.43;73.30;98754.38;4945141;28;20071;-64
2023/04/10 00:35:27;;;;;;;84.65;45.97;;;;;;;20.47;73.79;98754.69;4928372;29;20134;-63
2023/04/10 00:37:58;;;;;;;95.45;45.75;;;;;;;20.49;73.52;98758.72;4915113;29;20427;-65
2023/04/10 00:40:29;;;;;;;90.85;45.90;;;;;;;20.50;73.21;98762.25;4944598;29;20051;-65
2023/04/10 00:42:58;;;;;;;97.50;47.67;;;;;;;20.54;73.32;98753.41;4944492;28;20051;-64
2023/04/10 00:45:28;;;;;;;89.35;45.80;;;;;;;20.53;72.91;98759.84;4945012;29;20158;-65
2023/04/10 00:47:58;;;;;;;93.40;46.58;;;;;;;20.51;73.62;98770.06;4946107;28;20541;-65
2023/04/10 00:50:27;;;;;;;88.43;48.10;;;;;;;20.48;73.16;98765.22;4924247;29;20063;-65
2023/04/10 00:52:58;;;;;;;110.63;46.42;;;;;;;20.57;72.88;98771.75;4950689;28;20558;-67
2023/04/10 00:55:28;;;;;;;111.47;47.67;;;;;;;20.55;72.36;98776.56;4943414;29;20062;-64
2023/04/10 00:57:57;;;;;;;90.22;47.83;;;;;;;20.54;72.09;98777.63;4945991;29;20073;-65
2023/04/10 01:00:26;;;;;;;91.47;48.05;;;;;;;20.52;72.72;98776.25;4944668;29;20092;-65
2023/04/10 01:02:56;;;;;;;95.90;48.95;;;;;;;20.54;72.29;98782.19;4928312;29;20055;-65
2023/04/10 01:05:34;;;;;;;85.97;46.88;;;;;;;20.52;73.04;98777.06;4938657;29;20048;-64
2023/04/10 01:08:14;;;;;;;95.32;46.47;;;;;;;20.55;72.58;98779.25;4945469;29;20142;-64
2023/04/10 01:11:06;;;;;;;108.97;50.10;;;;;;;20.59;72.40;98790.31;4944188;29;20047;-65
2023/04/10 01:13:46;;;;;;;98.00;50.60;;;;;;;20.62;72.42;98784.44;4941978;29;20102;-65
2023/04/10 01:16:25;;;;;;;86.95;48.90;;;;;;;20.67;72.15;98797.13;4944323;29;20055;-64
2023/04/10 01:19:26;;;;;;;103.18;52.65;;;;;;;20.63;72.85;98803.00;4945681;29;20129;-64
2023/04/10 01:21:56;;;;;;;93.80;48.58;;;;;;;20.66;72.61;98804.38;4941001;29;20474;-64
2023/04/10 01:24:56;;;;;;;96.35;50.20;;;;;;;20.73;72.32;98802.28;4945876;28;20047;-65
2023/04/10 01:27:46;;;;;;;99.80;52.15;;;;;;;20.82;72.42;98818.78;4942088;29;20047;-65
2023/04/10 01:30:20;;;;;;;96.68;50.22;;;;;;;20.88;71.86;98818.59;4943749;29;20078;-64
2023/04/10 01:32:54;;;;;;;94.95;51.65;;;;;;;20.95;71.81;98812.97;4953569;28;20126;-65
2023/04/10 01:35:27;;;;;;;92.85;51.08;;;;;;;21.06;72.02;98817.41;4927655;29;20472;-64
2023/04/10 01:38:00;;;;;;;108.65;54.67;;;;;;;21.20;71.37;98828.56;4943394;29;20046;-67
2023/04/10 01:40:32;;;;;;;97.32;51.33;;;;;;;21.30;71.66;98828.63;4922891;29;20043;-66
2023/04/10 01:43:05;;;;;;;96.55;52.58;;;;;;;21.34;71.48;98830.56;4919156;29;20726;-64
2023/04/10 01:45:45;;;;;;;88.45;52.15;;;;;;;21.34;71.49;98832.44;4909100;29;20054;-64
2023/04/10 01:48:17;;;;;;;101.45;54.47;;;;;;;21.44;71.35;98833.31;4939665;29;20043;-63
2023/04/10 01:50:47;;;;;;;110.82;54.60;;;;;;;21.59;71.34;98839.88;4942088;29;21019;-67
2023/04/10 01:53:18;;;;;;;109.03;58.67;;;;;;;21.66;70.86;98841.28;4923519;29;20070;-66
2023/04/10 01:55:49;;;;;;;103.70;57.45;;;;;;;21.73;72.02;98841.84;4931043;29;20428;-65
2023/04/10 01:58:19;;;;;;;102.20;57.72;;;;;;;21.80;72.12;98845.13;4943710;29;20476;-64
2023/04/10 02:00:49;;;;;;;122.95;59.95;;;;;;;21.95;71.04;98839.03;4944975;29;20060;-63
2023/04/10 02:03:19;;;;;;;119.55;61.35;;;;;;;22.09;70.78;98848.25;4941020;28;20084;-64
2023/04/10 02:06:16;;;;;;;118.50;65.32;;;;;;;22.23;69.89;98843.19;4945997;28;20055;-64
2023/04/10 02:09:02;;;;;;;129.23;68.47;;;;;;;22.39;69.76;98842.97;4928067;29;20133;-62
2023/04/10 02:11:41;;;;;;;125.30;69.35;;;;;;;22.63;68.53;98845.19;4937942;28;20043;-65
2023/04/10 02:14:15;;;;;;;141.15;70.32;;;;;;;23.27;65.39;98840.97;4945094;29;20138;-62
2023/04/10 02:16:45;;;;;;;151.65;72.85;;;;;;;24.42;61.50;98850.97;4922326;29;20083;-64
2023/04/10 02:19:18;;;;;;;189.98;75.38;;;;;;;25.43;58.47;98847.56;4908860;29;20131;-63
2023/04/10 02:21:47;;;;;;;174.80;74.70;;;;;;;26.19;54.77;98853.03;4936549;29;20058;-66
2023/04/10 02:24:18;;;;;;;161.68;72.70;;;;;;;26.86;53.49;98847.56;4945137;28;20055;-65
2023/04/10 02:26:49;;;;;;;143.32;70.93;;;;;;;27.40;52.84;98861.34;4921848;29;20933;-64
2023/04/10 02:29:19;;;;;;;132.63;72.90;;;;;;;27.79;51.18;98860.97;4908935;29;20052;-64
2023/04/10 02:31:49;;;;;;;174.48;71.18;;;;;;;27.99;49.62;98867.91;4929751;29;20055;-64
2023/04/10 02:34:19;;;;;;;167.77;73.70;;;;;;;28.12;50.08;98865.22;4924326;29;20062;-64
2023/04/10 02:36:49;;;;;;;135.90;70.68;;;;;;;28.33;48.30;98868.31;4946562;28;20059;-63
2023/04/10 02:39:19;;;;;;;144.95;70.07;;;;;;;28.40;49.31;98876.09;4935238;28;20078;-63
2023/04/10 02:41:51;;;;;;;127.00;69.10;;;;;;;28.71;48.67;98890.72;4921912;29;20463;-63
2023/04/10 02:44:20;;;;;;;140.13;70.57;;;;;;;28.78;49.20;98882.13;4928671;29;20166;-65
2023/04/10 02:46:50;;;;;;;124.18;70.78;;;;;;;28.61;49.50;98884.66;4937862;29;20080;-63
2023/04/10 02:49:20;;;;;;;125.13;72.20;;;;;;;28.29;50.24;98885.59;4959206;28;20130;-63
2023/04/10 02:51:50;;;;;;;138.85;71.82;;;;;;;28.02;48.31;98891.81;4922251;29;20044;-63
2023/04/10 02:54:21;;;;;;;139.70;72.55;;;;;;;27.68;51.55;98887.53;4924697;29;20052;-65
2023/04/10 02:56:51;;;;;;;135.02;73.30;;;;;;;27.50;51.50;98887.59;4922115;29;20055;-63
2023/04/10 02:59:20;;;;;;;129.77;70.55;;;;;;;27.30;49.71;98886.00;4925382;29;20058;-62
2023/04/10 03:01:53;;;;;;;130.52;68.72;;;;;;;27.17;52.06;98892.19;4933928;29;20047;-64
2023/04/10 03:04:22;;;;;;;121.00;69.95;;;;;;;26.94;54.29;98891.19;4923300;29;20058;-63
2023/04/10 03:06:53;;;;;;;129.45;69.13;;;;;;;26.79;55.24;98896.78;4922151;29;20544;-63
2023/04/10 03:09:23;;;;;;;121.72;69.88;;;;;;;26.54;55.53;98891.72;4928251;29;20863;-63
2023/04/10 03:11:54;;;;;;;132.98;68.72;;;;;;;26.40;57.46;98909.81;4926620;29;20059;-62
2023/04/10 03:14:23;;;;;;;125.78;66.20;;;;;;;26.26;55.78;98907.81;4939264;29;20938;-63
2023/04/10 03:16:53;;;;;;;124.00;65.93;;;;;;;26.14;58.46;98903.84;4945343;29;20070;-63
2023/04/10 03:19:25;;;;;;;106.45;55.03;;;;;;;26.12;55.57;98909.56;4946698;29;20118;-64
2023/04/10 03:21:54;;;;;;;66.00;35.78;;;;;;;26.13;51.89;98907.66;4942365;28;20059;-63
2023/04/10 03:24:24;;;;;;;57.85;30.30;;;;;;;26.17;50.14;98908.69;4937937;29;20050;-63
2023/04/10 03:26:55;;;;;;;47.55;24.50;;;;;;;26.11;49.72;98910.66;4932747;29;20564;-62
2023/04/10 03:29:25;;;;;;;42.20;23.15;;;;;;;26.09;50.35;98910.16;4928344;29;20489;-63
2023/04/10 03:31:56;;;;;;;46.58;19.80;;;;;;;26.07;48.36;98916.97;4917307;29;20811;-64
2023/04/10 03:34:26;;;;;;;37.50;18.77;;;;;;;26.01;48.61;98920.81;4918079;29;20052;-63
2023/04/10 03:36:56;;;;;;;40.70;19.17;;;;;;;26.02;47.69;98919.75;4928452;29;20099;-62
2023/04/10 03:39:25;;;;;;;36.17;16.92;;;;;;;26.07;46.07;98925.13;4930447;29;20139;-62
2023/04/10 03:41:55;;;;;;;29.77;15.57;;;;;;;26.12;44.11;98922.31;4947218;28;20047;-62
2023/04/10 03:44:25;;;;;;;29.35;15.00;;;;;;;26.07;45.07;98934.03;4947469;29;20051;-62
2023/04/10 03:46:54;;;;;;;29.55;15.50;;;;;;;26.06;45.69;98929.75;4927871;29;20295;-62
2023/04/10 03:49:24;;;;;;;31.50;15.50;;;;;;;26.09;45.58;98937.28;4939863;29;20047;-62
2023/04/10 03:52:01;;;;;;;25.38;15.43;;;;;;;26.12;45.87;98936.72;4924392;29;20136;-63
2023/04/10 03:54:30;;;;;;;37.72;16.55;;;;;;;26.17;45.52;98944.00;4928960;29;20050;-62
2023/04/10 03:57:02;;;;;;;38.13;18.90;;;;;;;26.21;45.55;98955.94;4908850;29;20068;-62
2023/04/10 03:59:32;;;;;;;37.25;18.83;;;;;;;26.33;45.07;98950.94;4909928;29;20504;-65
2023/04/10 04:02:11;;;;;;;33.90;20.20;;;;;;;26.35;45.79;98952.25;4923850;29;20068;-63
2023/04/10 04:04:42;;;;;;;41.38;20.23;;;;;;;26.46;45.47;98949.41;4928422;29;20143;-63
2023/04/10 04:07:40;;;;;;;35.88;18.70;;;;;;;26.48;45.66;98955.34;4943617;29;20786;-62
2023/04/10 04:10:42;;;;;;;31.17;16.00;;;;;;;26.51;43.59;98950.13;4922127;28;20530;-62
2023/04/10 04:13:17;;;;;;;27.75;13.43;;;;;;;26.72;42.11;98951.53;4945716;29;20043;-65
2023/04/10 04:16:06;;;;;;;20.90;9.93;;;;;;;26.75;42.88;98952.84;4928169;29;20110;-64
2023/04/10 04:18:43;;;;;;;18.23;8.43;;;;;;;26.91;38.35;98957.00;4930464;29;20110;-63
2023/04/10 04:21:20;;;;;;;14.93;7.90;;;;;;;27.04;40.56;98959.00;4929177;29;20086;-65
2023/04/10 04:24:18;;;;;;;30.38;8.10;;;;;;;27.30;36.21;98959.44;4922958;29;20059;-62
2023/04/10 04:27:04;;;;;;;17.45;6.85;;;;;;;27.69;35.98;98953.69;4927261;28;20054;-63
2023/04/10 04:29:48;;;;;;;16.48;6.80;;;;;;;28.12;32.75;98962.47;4943307;29;20047;-64
2023/04/10 04:32:24;;;;;;;23.02;7.13;;;;;;;28.34;35.71;98959.06;4929542;28;20059;-63
2023/04/10 04:35:02;;;;;;;15.10;7.25;;;;;;;28.54;35.71;98970.38;4945150;28;20476;-66
2023/04/10 04:37:50;;;;;;;15.23;5.97;;;;;;;28.81;33.09;98968.78;4947133;28;20066;-67
2023/04/10 04:40:46;;;;;;;16.58;6.03;;;;;;;29.16;34.08;98967.19;4925966;29;20518;-64
2023/04/10 04:43:35;;;;;;;13.48;5.90;;;;;;;29.51;33.41;98977.28;4938812;29;20055;-64
2023/04/10 04:46:17;;;;;;;17.27;7.13;;;;;;;30.03;33.66;98969.47;4928808;29;20040;-66
2023/04/10 04:48:59;;;;;;;14.60;7.13;;;;;;;30.38;35.88;98968.50;4927071;29;20048;-63
2023/04/10 04:51:51;;;;;;;14.70;7.03;;;;;;;30.55;31.94;98967.78;4943799;29;20101;-63
2023/04/10 04:54:50;;;;;;;23.40;6.60;;;;;;;30.92;29.88;98969.97;4889230;29;20216;-64
2023/04/10 04:57:52;;;;;;;23.15;8.80;;;;;;;31.37;28.24;98975.19;4916236;29;20074;-64
2023/04/10 05:00:40;;;;;;;18.10;8.13;;;;;;;31.50;31.22;98976.97;4938379;29;20044;-64
2023/04/10 05:03:28;;;;;;;22.95;8.35;;;;;;;31.96;29.85;98976.25;4937745;29;20097;-63
2023/04/10 05:06:04;;;;;;;16.02;8.38;;;;;;;31.84;30.39;98976.13;4926151;29;20791;-64
2023/04/10 05:08:52;;;;;;;24.60;9.40;;;;;;;31.56;31.47;98983.91;4947364;28;20419;-61
2023/04/10 05:11:45;;;;;;;19.77;9.82;;;;;;;31.48;29.24;98976.47;4927666;29;20146;-60
2023/04/10 05:14:37;;;;;;;22.40;11.27;;;;;;;31.47;30.53;98985.81;4945113;29;20108;-60
2023/04/10 05:17:27;;;;;;;27.90;11.65;;;;;;;31.57;32.16;98975.38;4919901;29;20115;-63
2023/04/10 05:20:15;;;;;;;32.50;12.32;;;;;;;31.39;32.16;98981.13;4944757;29;20396;-61
2023/04/10 05:23:03;;;;;;;28.95;13.00;;;;;;;31.06;35.83;98983.53;4948143;28;20057;-63
2023/04/10 05:25:53;;;;;;;30.40;14.77;;;;;;;31.10;35.41;98984.50;4926176;29;20234;-59
2023/04/10 05:28:58;;;;;;;33.47;16.98;;;;;;;30.95;35.97;98982.19;4896722;29;20044;-58
2023/04/10 05:31:46;;;;;;;34.22;18.08;;;;;;;31.10;32.69;98984.50;4942986;28;20074;-57
2023/04/10 05:34:38;;;;;;;37.40;19.15;;;;;;;31.07;31.36;98979.69;4940630;28;20043;-58
2023/04/10 05:37:11;;;;;;;37.08;19.15;;;;;;;31.20;34.57;98987.72;4955429;28;20047;-59
2023/04/10 05:40:16;;;;;;;40.15;20.08;;;;;;;31.54;31.34;98991.63;4880066;29;20190;-58
2023/04/10 05:43:15;;;;;;;37.38;19.65;;;;;;;31.72;33.75;98985.03;4926582;29;20471;-60
2023/04/10 05:45:57;;;;;;;;;;;;;;;31.82;34.35;98983.88;4933919;29;20146;-60
2023/04/10 05:48:45;;;;;;;40.50;20.58;;;;;;;31.86;31.08;98974.69;4925000;29;20426;-59
2023/04/10 05:51:17;;;;;;;45.55;20.25;;;;;;;31.93;31.55;98974.19;4926456;28;20063;-62
2023/04/10 05:54:07;;;;;;;47.90;18.88;;;;;;;32.05;34.97;98977.03;4925114;29;20863;-63
2023/04/10 05:57:00;;;;;;;;;;;;;;;31.96;35.01;98982.53;4944978;29;20047;-63
2023/04/10 05:59:47;;;;;;;36.78;17.73;;;;;;;31.89;33.52;98967.75;4924733;29;19926;-64
2023/04/10 06:02:39;;;;;;;27.58;14.45;;;;;;;31.92;33.19;98969.81;4903446;29;20691;-63
2023/04/10 06:05:18;;;;;;;26.45;12.20;;;;;;;32.18;28.84;98969.78;4928324;29;20157;-62
2023/04/10 06:07:47;;;;;;;16.92;9.93;;;;;;;32.40;30.11;98970.34;4957308;28;20051;-64
2023/04/10 06:10:17;;;;;;;23.17;9.77;;;;;;;32.18;32.68;98964.28;4927927;28;20091;-64
2023/04/10 06:12:47;;;;;;;20.67;9.68;;;;;;;31.97;35.35;98956.75;4938217;29;20052;-64
2023/04/10 06:15:17;;;;;;;30.42;10.18;;;;;;;31.72;34.69;98957.63;4938107;29;20056;-65
2023/04/10 06:17:46;;;;;;;25.80;10.00;;;;;;;31.71;33.08;98955.22;4925288;29;20135;-62
2023/04/10 06:20:16;;;;;;;18.13;9.00;;;;;;;31.57;33.94;98949.91;4926072;28;20492;-62
2023/04/10 06:22:45;;;;;;;15.70;7.95;;;;;;;31.68;34.24;98951.19;4938459;29;20525;-62
2023/04/10 06:25:15;;;;;;;20.88;7.47;;;;;;;31.72;33.31;98941.19;4926041;29;20052;-63
2023/04/10 06:27:45;;;;;;;14.20;7.93;;;;;;;31.78;31.94;98939.09;4926438;29;20049;-63
2023/04/10 06:30:14;;;;;;;15.00;7.90;;;;;;;31.85;34.69;98944.88;4926668;29;20138;-62
2023/04/10 06:32:44;;;;;;;21.42;7.60;;;;;;;31.66;34.86;98942.50;4935932;29;20487;-62
2023/04/10 06:35:14;;;;;;;19.23;7.07;;;;;;;32.06;31.27;98937.53;4932482;29;20459;-60
2023/04/10 06:37:44;;;;;;;15.90;6.07;;;;;;;32.24;32.02;98941.06;4943638;28;20432;-62
2023/04/10 06:40:15;;;;;;;11.25;5.05;;;;;;;32.38;32.09;98927.94;4930490;29;20059;-60
2023/04/10 06:42:44;;;;;;;20.15;5.68;;;;;;;32.31;32.77;98933.16;4944105;29;20078;-59
2023/04/10 06:45:22;;;;;;;11.85;6.18;;;;;;;32.42;34.38;98931.63;4926783;29;20054;-60
2023/04/10 06:47:52;;;;;;;12.60;5.15;;;;;;;32.41;32.60;98922.59;4944059;29;20047;-60
2023/04/10 06:50:22;;;;;;;10.65;6.10;;;;;;;32.48;30.46;98920.16;4945293;29;20135;-61
2023/04/10 06:52:54;;;;;;;21.55;6.30;;;;;;;32.67;30.22;98921.66;4931920;29;20069;-62
2023/04/10 06:55:25;;;;;;;17.05;6.20;;;;;;;32.90;31.10;98926.50;4938290;28;20051;-62
2023/04/10 06:57:56;;;;;;;13.82;5.53;;;;;;;32.63;31.73;98921.53;4964241;28;20134;-63
2023/04/10 07:00:25;;;;;;;16.35;5.57;;;;;;;32.58;30.40;98918.13;4948476;28;20743;-62
2023/04/10 07:02:55;;;;;;;12.70;5.80;;;;;;;32.69;29.28;98916.66;4947552;29;20631;-62
2023/04/10 07:05:25;;;;;;;20.38;6.15;;;;;;;32.86;30.42;98920.09;4946171;28;20043;-61
2023/04/10 07:07:55;;;;;;;14.27;6.28;;;;;;;32.77;32.63;98916.59;4948718;28;20134;-62
2023/04/10 07:10:27;;;;;;;19.98;8.65;;;;;;;32.72;30.31;98913.25;4928487;28;20641;-62
2023/04/10 07:12:57;;;;;;;21.45;6.90;;;;;;;32.84;30.53;98902.38;4945128;28;20795;-61
2023/04/10 07:15:27;;;;;;;13.82;6.72;;;;;;;32.86;31.08;98906.38;4927958;29;20480;-61
2023/04/10 07:17:56;;;;;;;19.33;7.15;;;;;;;32.70;32.35;98904.56;4961058;28;20059;-62
2023/04/10 07:20:27;;;;;;;18.35;7.50;;;;;;;32.78;32.84;98909.97;4932624;29;20552;-62
2023/04/10 07:22:56;;;;;;;16.48;6.97;;;;;;;32.60;33.86;98905.72;4939416;28;20050;-62
2023/04/10 07:25:25;;;;;;;17.55;6.45;;;;;;;32.38;31.51;98897.78;4947492;29;20134;-63
2023/04/10 07:27:55;;;;;;;17.45;5.53;;;;;;;32.23;32.69;98884.63;4928517;29;20074;-62
2023/04/10 07:30:25;;;;;;;19.15;7.05;;;;;;;31.93;33.29;98887.31;4939705;28;20498;-62
2023/04/10 07:32:54;;;;;;;18.48;5.78;;;;;;;32.01;34.73;98883.72;4947764;29;20585;-62
2023/04/10 07:35:24;;;;;;;14.45;5.55;;;;;;;31.90;33.84;98887.16;4959139;28;20507;-62
2023/04/10 07:37:54;;;;;;;14.60;5.30;;;;;;;32.14;32.67;98878.38;4947866;29;20043;-61
2023/04/10 07:40:23;;;;;;;14.85;5.32;;;;;;;32.39;28.78;98882.94;4962017;28;20489;-63
2023/04/10 07:42:53;;;;;;;17.80;5.05;;;;;;;32.35;32.93;98876.50;4947983;28;20062;-62
2023/04/10 07:45:22;;;;;;;14.73;5.80;;;;;;;32.38;30.70;98878.59;4947278;28;20066;-62
2023/04/10 07:47:52;;;;;;;18.83;6.55;;;;;;;32.12;32.52;98867.75;4947139;29;20054;-63
2023/04/10 07:50:21;;;;;;;16.38;5.78;;;;;;;31.99;31.78;98863.28;4929992;29;20056;-64
2023/04/10 07:52:51;;;;;;;28.00;6.72;;;;;;;32.14;27.44;98854.50;4948098;28;20063;-64
2023/04/10 07:55:20;;;;;;;13.18;5.25;;;;;;;32.16;29.22;98860.47;4946069;29;20141;-64
2023/04/10 07:57:51;;;;;;;15.95;4.60;;;;;;;32.35;26.87;98860.84;4926716;29;20047;-64
2023/04/10 08:00:20;;;;;;;36.78;7.32;;;;;;;32.29;31.88;98859.44;4946044;29;20055;-61
2023/04/10 08:02:50;;;;;;;17.38;4.70;;;;;;;32.14;32.44;98859.19;4941650;28;20129;-62
2023/04/10 08:05:20;;;;;;;18.05;5.20;;;;;;;31.88;32.56;98864.75;4930107;29;20054;-60
2023/04/10 08:07:50;;;;;;;12.30;4.55;;;;;;;32.05;29.06;98859.19;4948037;29;20158;-63
2023/04/10 08:10:19;;;;;;;13.02;4.10;;;;;;;31.95;31.71;98852.19;4946556;29;20907;-62
2023/04/10 08:12:49;;;;;;;12.23;4.57;;;;;;;31.86;30.70;98853.34;4940224;29;20039;-62
2023/04/10 08:15:19;;;;;;;15.82;4.80;;;;;;;31.86;32.86;98848.66;4929188;29;20051;-63
2023/04/10 08:17:49;;;;;;;14.15;4.25;;;;;;;31.81;30.45;98837.88;4946985;29;20054;-63
2023/04/10 08:20:19;;;;;;;16.23;4.35;;;;;;;31.92;32.42;98844.59;4941292;29;20142;-64
2023/04/10 08:22:48;;;;;;;12.25;4.03;;;;;;;31.87;31.02;98836.53;4942963;29;20054;-61
2023/04/10 08:25:17;;;;;;;9.88;3.85;;;;;;;31.74;32.07;98829.34;4945416;29;20146;-66
2023/04/10 08:27:47;;;;;;;10.20;4.10;;;;;;;31.55;30.03;98829.75;4926269;29;20059;-64
2023/04/10 08:30:16;;;;;;;9.52;3.85;;;;;;;31.54;29.97;98821.84;4945139;28;20566;-64
2023/04/10 08:32:46;;;;;;;14.40;3.35;;;;;;;31.33;28.92;98826.41;4946643;29;20047;-63
2023/04/10 08:35:16;;;;;;;11.52;3.60;;;;;;;31.14;31.37;98824.81;4945911;29;20065;-63
2023/04/10 08:37:45;;;;;;;13.20;3.50;;;;;;;31.17;29.32;98821.44;4943252;29;20058;-62
2023/04/10 08:40:29;;;;;;;7.07;3.25;;;;;;;31.29;29.70;98815.28;4911710;29;20058;-63
2023/04/10 08:42:59;;;;;;;7.85;3.20;;;;;;;31.50;28.90;98805.25;4939590;29;20522;-62
2023/04/10 08:45:29;;;;;;;10.07;3.65;;;;;;;31.45;30.10;98810.09;4945341;29;20431;-63
2023/04/10 08:48:01;;;;;;;11.88;4.60;;;;;;;31.88;26.10;98805.28;4940985;29;20040;-64
2023/04/10 08:50:35;;;;;;;11.50;3.78;;;;;;;31.66;30.35;98791.84;4940328;29;20142;-63
2023/04/10 08:53:10;;;;;;;21.42;3.78;;;;;;;31.71;29.97;98791.66;4943786;28;20052;-65
2023/04/10 08:55:40;;;;;;;11.80;4.63;;;;;;;31.50;30.08;98801.72;4946377;29;20055;-63
2023/04/10 08:58:12;;;;;;;13.40;5.40;;;;;;;31.22;31.23;98801.31;4907519;29;20115;-65
2023/04/10 09:00:41;;;;;;;11.88;4.28;;;;;;;31.14;31.68;98792.00;4946572;29;20146;-63
2023/04/10 09:03:12;;;;;;;17.70;4.57;;;;;;;30.92;32.28;98781.22;4939889;29;20055;-63
2023/04/10 09:05:42;;;;;;;12.30;3.95;;;;;;;31.19;28.66;98788.28;4946710;29;20063;-63
2023/04/10 09:08:14;;;;;;;10.52;3.63;;;;;;;31.09;32.51;98775.75;4940606;28;20083;-64
2023/04/10 09:10:44;;;;;;;6.70;4.00;;;;;;;30.75;33.69;98771.09;4946387;29;20054;-61
2023/04/10 09:13:14;;;;;;;11.15;4.40;;;;;;;30.71;33.28;98775.56;4946023;28;20121;-62
2023/04/10 09:15:57;;;;;;;12.75;4.43;;;;;;;30.60;33.70;98763.38;4946623;28;20047;-62
2023/04/10 09:18:54;;;;;;;8.80;4.22;;;;;;;30.51;34.64;98759.03;4946870;28;20078;-63
2023/04/10 09:21:26;;;;;;;15.68;4.70;;;;;;;30.56;33.86;98762.41;4943789;28;20070;-64
2023/04/10 09:24:01;;;;;;;8.93;4.05;;;;;;;30.49;34.70;98753.91;4949239;28;20070;-62
2023/04/10 09:26:32;;;;;;;7.55;3.95;;;;;;;30.40;35.22;98757.72;4931877;29;20058;-62
2023/04/10 09:29:06;;;;;;;13.45;3.95;;;;;;;30.34;35.58;98755.13;4946332;28;20791;-66
2023/04/10 09:31:39;;;;;;;12.65;4.50;;;;;;;30.30;34.94;98756.09;4946537;28;20063;-63
2023/04/10 09:34:14;;;;;;;13.25;5.10;;;;;;;30.41;33.61;98740.16;4945095;28;20142;-62
2023/04/10 09:36:54;;;;;;;10.65;4.40;;;;;;;30.26;34.32;98739.53;4944458;28;20055;-63
2023/04/10 09:39:35;;;;;;;11.55;4.30;;;;;;;30.11;34.61;98736.47;4940696;28;20058;-63
2023/04/10 09:42:05;;;;;;;9.18;4.40;;;;;;;30.08;34.59;98737.91;4941896;29;20090;-63
2023/04/10 09:44:36;;;;;;;12.35;4.15;;;;;;;30.16;33.45;98730.84;4942537;28;20129;-62
2023/04/10 09:47:22;;;;;;;15.85;4.97;;;;;;;30.16;33.91;98725.38;4928470;29;20138;-63
2023/04/10 09:49:56;;;;;;;12.85;4.35;;;;;;;30.13;33.76;98729.56;4944940;29;20498;-64
2023/04/10 09:52:28;;;;;;;10.93;3.90;;;;;;;30.44;27.38;98718.50;4911991;29;20047;-64
2023/04/10 09:55:07;;;;;;;9.82;4.03;;;;;;;30.68;29.30;98726.19;4945112;29;20047;-65
2023/04/10 09:57:37;;;;;;;12.38;4.15;;;;;;;30.86;26.72;98732.44;4945238;28;20455;-63
2023/04/10 10:00:08;;;;;;;13.23;3.83;;;;;;;31.05;28.11;98720.06;4945451;28;20055;-63
2023/04/10 10:02:39;;;;;;;4.57;3.03;;;;;;;31.12;25.74;98719.53;4945885;28;20048;-63
2023/04/10 10:05:10;;;;;;;12.25;3.60;;;;;;;31.09;28.19;98712.81;4923878;29;20040;-64
2023/04/10 10:07:40;;;;;;;7.28;3.72;;;;;;;31.00;29.31;98708.44;4927054;29;20433;-64
2023/04/10 10:10:11;;;;;;;12.77;3.35;;;;;;;31.00;27.69;98698.34;4929598;29;20146;-64
2023/04/10 10:12:49;;;;;;;8.32;3.20;;;;;;;30.90;28.55;98693.19;4947816;29;20048;-62
2023/04/10 10:15:30;;;;;;;15.20;4.35;;;;;;;30.93;26.54;98692.56;4944773;29;20122;-62
2023/04/10 10:18:35;;;;;;;10.95;3.78;;;;;;;31.06;28.25;98694.31;4950967;28;20085;-62
2023/04/10 10:21:05;;;;;;;9.82;3.83;;;;;;;31.10;26.81;98680.78;4946171;29;20155;-62
2023/04/10 10:23:36;;;;;;;13.75;4.03;;;;;;;31.14;28.12;98693.47;4949831;29;20464;-63
2023/04/10 10:26:06;;;;;;;5.45;3.00;;;;;;;31.24;27.55;98684.09;4930944;29;20158;-63
2023/04/10 10:28:39;;;;;;;10.15;3.72;;;;;;;31.13;27.16;98688.31;4900999;29;20057;-62
2023/04/10 10:31:10;;;;;;;15.05;3.50;;;;;;;30.99;27.67;98685.75;4947129;29;20054;-63
2023/04/10 10:33:40;;;;;;;10.95;3.40;;;;;;;30.92;27.45;98688.19;4948824;29;20047;-63
2023/04/10 10:36:12;;;;;;;6.22;3.35;;;;;;;30.91;27.64;98686.59;4949296;29;20078;-64
2023/04/10 10:38:53;;;;;;;12.35;4.30;;;;;;;31.23;26.40;98681.69;4947311;29;20047;-66
2023/04/10 10:41:36;;;;;;;10.57;3.97;;;;;;;31.39;24.70;98678.06;4948163;28;20047;-63
2023/04/10 10:44:30;;;;;;;10.07;3.97;;;;;;;31.71;24.35;98675.81;4948409;29;20054;-62
2023/04/10 10:47:20;;;;;;;13.30;3.72;;;;;;;31.67;27.35;98667.47;4928893;29;20151;-65
2023/04/10 10:49:59;;;;;;;27.23;4.35;;;;;;;31.20;28.80;98673.00;4930891;29;20058;-64
2023/04/10 10:52:41;;;;;;;9.20;4.45;;;;;;;31.01;29.67;98675.34;4940114;29;20055;-63
2023/04/10 10:55:34;;;;;;;10.68;4.35;;;;;;;31.02;27.44;98670.66;4927843;29;20062;-62
2023/04/10 10:58:06;;;;;;;8.20;4.57;;;;;;;31.06;28.46;98669.69;4946840;29;20058;-63
2023/04/10 11:00:50;;;;;;;11.15;3.72;;;;;;;30.88;29.67;98670.84;4948436;29;20066;-63
2023/04/10 11:03:21;;;;;;;12.13;4.05;;;;;;;30.86;29.90;98667.59;4928913;29;20048;-63
2023/04/10 11:05:53;;;;;;;14.80;4.25;;;;;;;30.64;30.49;98665.09;4947959;29;20057;-62
2023/04/10 11:08:32;;;;;;;8.80;3.58;;;;;;;30.65;28.53;98666.69;4947648;28;20126;-62
2023/04/10 11:11:06;;;;;;;11.70;3.50;;;;;;;30.63;29.42;98666.22;4946581;29;20083;-65
2023/04/10 11:13:40;;;;;;;16.48;4.10;;;;;;;30.87;25.20;98654.75;4943134;29;20144;-63
2023/04/10 11:16:10;;;;;;;8.02;3.70;;;;;;;30.98;27.73;98656.78;4946336;29;20051;-64
2023/04/10 11:18:46;;;;;;;11.98;3.78;;;;;;;30.76;28.64;98657.00;4947876;29;20424;-64
2023/04/10 11:21:30;;;;;;;13.77;4.28;;;;;;;30.74;28.08;98651.06;4946474;28;20130;-63
2023/04/10 11:24:02;;;;;;;11.52;4.88;;;;;;;30.70;29.79;98659.13;4945807;29;20047;-65
2023/04/10 11:29:18;;;;;;;10.38;3.88;;;;;;;30.68;29.20;98655.09;4947049;29;20098;-63
2023/04/10 11:32:09;;;;;;;13.68;4.03;;;;;;;30.70;27.71;98655.59;4948374;29;20043;-63
2023/04/10 11:34:44;;;;;;;11.10;4.07;;;;;;;30.84;27.08;98656.22;4948086;28;20130;-63
2023/04/10 11:37:23;;;;;;;12.35;4.40;;;;;;;30.93;25.59;98656.97;4944460;29;20043;-64
2023/04/10 11:40:04;;;;;;;10.90;4.30;;;;;;;30.84;28.54;98653.47;4947634;29;20051;-64
2023/04/10 11:42:34;;;;;;;8.45;4.00;;;;;;;30.96;26.09;98653.59;4946677;29;20047;-64
2023/04/10 11:45:26;;;;;;;13.35;4.55;;;;;;;30.91;28.44;98648.28;4946130;29;20047;-62
2023/04/10 11:47:56;;;;;;;6.07;4.10;;;;;;;30.99;26.44;98641.97;4926488;29;20047;-64
2023/04/10 11:50:31;;;;;;;17.73;4.30;;;;;;;31.04;27.89;98644.56;4943123;28;20055;-64
2023/04/10 11:53:00;;;;;;;16.08;5.05;;;;;;;31.04;27.46;98641.84;4945500;29;20042;-64
2023/04/10 11:55:39;;;;;;;18.58;4.47;;;;;;;30.93;27.66;98640.56;4945593;29;20055;-63
2023/04/10 11:58:40;;;;;;;15.00;5.55;;;;;;;30.95;27.85;98651.16;4945175;28;20059;-65
2023/04/10 12:01:13;;;;;;;19.60;4.85;;;;;;;30.87;27.87;98641.88;4897430;29;20440;-64